Adin, CA

8:34 AM PDT on July 24, 2014 (GMT -0700)
Lake County (KLKV) Elev 4728 ft | 42.16 °N, 120.40 °W | Change Station

Current weather conditions updated 19 minutes ago

Clear
Clear
52 °F
Feels Like 52 °F
N
7
Wind Variable Wind from North

Today is forecast to be Warmer than yesterday.

Today
High -- | Low -- °F
--% Chance of Precip.
Yesterday
High -- | Low -- °F
Precip. -- in
5:51 AM 8:28 PM
Waning Crescent, 5% visible
Pressure 30.29 in
Visibility 10.0 miles
Clouds Clear
Dew Point 39 °F
Humidity 62%
Rainfall 0.00 in
Snow Depth 1 in
UV 2 out of 12
Pollen 6.50 out of 12
Air Quality Not available.
Flu Activity Not available.
METAR KLKV 241515Z AUTO 01006KT 10SM CLR 11/04 A3029 RMK AO1

More Conditions Fewer Conditions

Pressure 30.29 in
Visibility 10.0 miles
Clouds Clear
Dew Point 39 °F
Humidity 62%
Rainfall 0.00 in
Snow Depth 1 in
UV 2 out of 12
Pollen 6.50 out of 12
Air Quality Not available.
Flu Activity Not available.
METAR KLKV 241515Z AUTO 01006KT 10SM CLR 11/04 A3029 RMK AO1

More Conditions Fewer Conditions

10-Day Weather Forecast

Almanac

Astronomy

Jul. 24, 2014 Rise Set
Actual Time 5:51 AM PDT 8:28 PM PDT
Civil Twilight 5:19 AM PDT 8:59 PM PDT
Nautical Twilight 4:40 AM PDT 9:39 PM PDT
Astronomical Twilight 3:55 AM PDT 10:24 PM PDT
Moon 4:04 AM PDT 6:46 PM PDT
Length of Visible Light 15h 40m
Length of Day
14h 36m
Tomorrow will be 1m 50s shorter.
Waning Crescent, 5% of the Moon is Illuminated
Today
Waning Crescent
Jul 26
New
Aug 3
First Quarter
Aug 10
Full
Aug 17
Last Quarter

Today's Extremes

State Highs State Lows

Community

WunderPhotos

Upload Photos

1,737,042 photos uploaded!

Nearby

Snow Depth

Station Depth Elevation
Adin Mountain 1 in 6200 ft
Cedar Pass 1 in 7100 ft
Crowder Flat 0 in 5100 ft
Independence Creek 0 in 6500 ft
CSS Lab 4 in 6900 ft

Earthquake Activity

City Distance Mag. Time & Date
Lakeview, Oregon 81 miles 2.5 9:31 AM PDT
2014-07-19
Lakeview, Oregon 83 miles 2.6 2:52 PM PDT
2014-07-18
Lakeview, Oregon 83 miles 2.5 3:53 PM PDT
2014-07-17
Minimum magnitude displayed is 2.5.

Coastal Water Temperatures

Place Temperature
No Stations Reporting

Nearby Weather Stations

Station Location Temp. Windchill Dew Point Humidity Wind Precip. Elev Updated Type
Lookout, CA 59.4 °F - 39 °F 47% North  at  0.0 mph 0.00 in / hr 4265 ft 8:31 AM PDT Normal
HADS PIT RIVER BELOW MUCK VALLEY POWE CA, Nubieber, CA 51 °F - - - North  at  - 0.00 in / hr 4120 ft 7:00 AM PDT MADIS
RAWS CANBY CA, Canby, CA 56 °F - 42 °F 59% North  at  0 mph 0.00 in / hr 4314 ft 8:02 AM PDT MADIS
RAWS MDF06 PORTABLE CA, Canby, CA 49 °F 49 °F 42 °F 76% North  at  0 mph 0.00 in / hr 5044 ft 7:25 AM PDT MADIS
RAWS RUSH CREEK CA, Adin, CA 49 °F 46 °F 42 °F 78% NNW  at  8 mph 0.00 in / hr 5542 ft 8:03 AM PDT MADIS
ADIN MOUNTAIN, Modoc National Forest, CA 43.0 °F 43 °F - - North  at  - - / hr 6167 ft 7:45 AM PDT Normal

Show More Stations Show Fewer Stations